Terminal Aerodrome Forecast
Issued by NWS

Home | Current Version | Previous Version | Graphics & Text | Print | Product List | Glossary On
Versions: 1 2 3 4 5 6 7 8 9 10 11 12 13 14 15 16 17 18 19 20 21 22 23 24 25
883
FTUS43 KBIS 071640 AAB
TAFDIK
TAF AMD
KDIK 071640Z 0717/0812 30022G31KT 2SM BLSN BKN030
     FM072100 29024G34KT 5SM BLSN BKN035
     FM080000 30018KT P6SM BKN025=

USA.gov is the U.S. government's official web portal to all federal, state and local government web resources and services.